Time;durP1;ratioP1;P1;durP2;ratioP2;P2;SDS_P1;SDS_P2;PMS_P1;PMS_P2;Temp;Humidity;BMP_temperature;BMP_pressure;BME280_temperature;BME280_humidity;BME280_pressure;Samples;Min_cycle;Max_cycle;Signal;HPM_P1;HPM_P2
2023/08/06 00:00:06;;;;;;;7.68;5.55;;;12.40;74.00;;;;;;4940651;29;20036;-87
2023/08/06 00:02:32;;;;;;;7.88;5.38;;;12.30;74.30;;;;;;4940666;29;20472;-88
2023/08/06 00:05:01;;;;;;;6.72;4.70;;;12.40;72.10;;;;;;4938951;29;20115;-87
2023/08/06 00:07:26;;;;;;;6.55;4.78;;;12.30;76.10;;;;;;4923604;29;20094;-87
2023/08/06 00:09:52;;;;;;;7.40;4.20;;;12.30;76.00;;;;;;4923629;29;20039;-87
2023/08/06 00:12:18;;;;;;;6.78;3.83;;;12.30;78.40;;;;;;4924681;29;20032;-87
2023/08/06 00:14:44;;;;;;;6.85;4.32;;;12.30;80.10;;;;;;4936926;29;20028;-88
2023/08/06 00:17:09;;;;;;;6.60;4.05;;;12.30;81.80;;;;;;4937115;29;20368;-88
2023/08/06 00:19:35;;;;;;;7.22;3.33;;;12.30;81.90;;;;;;4937740;29;20032;-88
2023/08/06 00:22:01;;;;;;;5.30;2.83;;;12.30;84.80;;;;;;4920668;29;20036;-88
2023/08/06 00:24:27;;;;;;;5.80;2.90;;;12.30;86.30;;;;;;4920565;29;20034;-87
2023/08/06 00:26:53;;;;;;;7.03;2.90;;;12.50;91.40;;;;;;4936695;29;20102;-88
2023/08/06 00:29:19;;;;;;;6.20;2.70;;;12.50;90.30;;;;;;4936587;29;20163;-89
2023/08/06 00:31:44;;;;;;;4.82;2.30;;;12.50;92.90;;;;;;4934912;29;20043;-88
2023/08/06 00:34:10;;;;;;;6.30;2.53;;;12.60;94.20;;;;;;4933060;29;20028;-87
2023/08/06 00:36:35;;;;;;;5.85;2.80;;;12.60;94.40;;;;;;4936739;29;20036;-88
2023/08/06 00:39:01;;;;;;;4.30;2.10;;;12.50;95.10;;;;;;4936176;29;20610;-88
2023/08/06 00:41:27;;;;;;;5.68;2.72;;;12.50;96.30;;;;;;4937935;29;20418;-87
2023/08/06 00:43:53;;;;;;;4.80;2.35;;;12.60;95.30;;;;;;4934683;29;20036;-87
2023/08/06 00:46:19;;;;;;;6.82;2.65;;;12.60;96.30;;;;;;4934816;29;20042;-88
2023/08/06 00:48:44;;;;;;;4.90;2.28;;;12.50;96.30;;;;;;4933056;29;20059;-88
2023/08/06 00:51:11;;;;;;;6.68;2.70;;;12.50;97.60;;;;;;4933356;29;20016;-88
2023/08/06 00:53:39;;;;;;;8.15;3.17;;;12.50;97.60;;;;;;4936732;29;20490;-89
2023/08/06 00:56:07;;;;;;;6.13;2.60;;;12.60;98.00;;;;;;4935775;29;20590;-89
2023/08/06 00:58:34;;;;;;;5.68;2.60;;;12.80;98.00;;;;;;4920843;29;20337;-89
2023/08/06 01:01:02;;;;;;;5.70;3.05;;;12.80;98.00;;;;;;4938040;29;20035;-90
2023/08/06 01:03:28;;;;;;;6.40;2.83;;;12.90;98.00;;;;;;4936427;29;20034;-89
2023/08/06 01:06:32;;;;;;;;;;;;;;;;;;;;;
2023/08/06 01:16:30;;;;;;;5.45;2.63;;;12.90;98.00;;;;;;4840243;29;20038;-92
2023/08/06 01:27:08;;;;;;;6.80;2.80;;;13.10;98.00;;;;;;4712479;30;20172;-92
2023/08/06 01:30:01;;;;;;;8.07;2.30;;;13.20;98.00;;;;;;4768840;29;20158;-88
2023/08/06 02:03:53;;;;;;;4.47;2.10;;;13.50;98.00;;;;;;4842609;29;20059;-93
2023/08/06 02:42:32;;;;;;;5.45;2.03;;;13.60;98.00;;;;;;4934004;29;20122;-93
2023/08/06 03:48:47;;;;;;;5.05;1.73;;;13.40;97.70;;;;;;4928075;29;20087;-92
2023/08/06 03:51:22;;;;;;;5.32;1.80;;;13.40;98.00;;;;;;4934036;29;20035;-89
2023/08/06 03:53:48;;;;;;;4.80;1.90;;;13.30;98.00;;;;;;4935658;29;20114;-88
2023/08/06 03:56:13;;;;;;;6.47;2.05;;;13.30;98.00;;;;;;4935705;29;20123;-88
2023/08/06 03:58:40;;;;;;;5.97;1.98;;;13.10;96.00;;;;;;4938743;29;20028;-88
2023/08/06 04:01:06;;;;;;;6.63;1.98;;;13.00;95.10;;;;;;4920482;29;20031;-86
2023/08/06 04:03:32;;;;;;;6.03;2.10;;;12.90;94.90;;;;;;4939193;29;20484;-84
2023/08/06 04:05:57;;;;;;;7.38;2.22;;;12.90;94.10;;;;;;4937438;29;20036;-83
2023/08/06 04:08:23;;;;;;;9.02;2.90;;;12.80;91.10;;;;;;4937342;29;20110;-82
2023/08/06 04:10:52;;;;;;;10.13;2.40;;;12.60;88.80;;;;;;4935928;29;20027;-83
2023/08/06 04:13:18;;;;;;;8.18;3.10;;;12.60;87.70;;;;;;4936045;29;20099;-82
2023/08/06 04:15:49;;;;;;;6.05;2.00;;;12.40;86.60;;;;;;4931761;29;20077;-82
2023/08/06 04:18:16;;;;;;;8.05;2.30;;;12.40;86.90;;;;;;4932435;29;20058;-84
2023/08/06 04:20:49;;;;;;;7.35;2.30;;;12.40;85.90;;;;;;4934072;29;20032;-84
2023/08/06 04:23:15;;;;;;;6.55;1.88;;;12.40;85.60;;;;;;4933053;29;20026;-84
2023/08/06 04:25:40;;;;;;;4.90;2.15;;;12.40;85.50;;;;;;4916187;29;20028;-84
2023/08/06 04:28:07;;;;;;;4.28;1.77;;;12.30;86.00;;;;;;4933064;29;20079;-84
2023/08/06 04:30:36;;;;;;;4.68;1.70;;;12.30;92.50;;;;;;4916677;29;20024;-85
2023/08/06 04:33:02;;;;;;;4.45;1.50;;;12.30;91.70;;;;;;4916320;29;20114;-84
2023/08/06 04:35:28;;;;;;;5.53;1.27;;;12.20;93.90;;;;;;4933320;29;20499;-85
2023/08/06 04:37:53;;;;;;;4.07;1.48;;;12.20;93.70;;;;;;4935248;29;20039;-85
2023/08/06 04:40:19;;;;;;;3.85;1.30;;;12.20;93.30;;;;;;4933516;29;20059;-86
2023/08/06 04:42:44;;;;;;;5.15;1.75;;;12.20;92.20;;;;;;4933314;29;20519;-85
2023/08/06 04:45:10;;;;;;;6.35;1.95;;;12.20;91.60;;;;;;4934080;29;20023;-85
2023/08/06 04:47:42;;;;;;;7.93;2.63;;;12.20;90.60;;;;;;4931684;29;20050;-86
2023/08/06 04:50:08;;;;;;;4.53;1.38;;;12.20;91.70;;;;;;4915706;29;20036;-86
2023/08/06 04:52:33;;;;;;;5.75;1.60;;;12.20;93.20;;;;;;4934004;29;20432;-87
2023/08/06 04:54:59;;;;;;;5.80;1.95;;;12.20;92.90;;;;;;4934531;29;20020;-85
2023/08/06 04:57:25;;;;;;;4.90;1.70;;;12.30;92.20;;;;;;4933919;29;21934;-85
2023/08/06 04:59:51;;;;;;;4.00;1.40;;;12.30;92.30;;;;;;4934887;29;20038;-87
2023/08/06 05:02:16;;;;;;;3.55;1.35;;;12.30;93.40;;;;;;4914430;29;20059;-85
2023/08/06 05:04:42;;;;;;;4.07;1.25;;;12.30;94.40;;;;;;4935141;29;20114;-85
2023/08/06 05:07:07;;;;;;;4.18;1.20;;;12.30;95.20;;;;;;4914489;29;20138;-85
2023/08/06 05:09:33;;;;;;;3.50;1.05;;;12.30;95.90;;;;;;4931116;29;20028;-85
2023/08/06 05:12:02;;;;;;;3.70;1.42;;;12.40;97.00;;;;;;4934133;29;20103;-84
2023/08/06 05:14:27;;;;;;;2.80;1.05;;;12.40;95.80;;;;;;4936364;29;20027;-88
2023/08/06 05:16:53;;;;;;;2.20;1.10;;;12.40;96.60;;;;;;4936176;29;20417;-86
2023/08/06 05:19:19;;;;;;;2.63;1.17;;;12.40;97.70;;;;;;4933192;29;20083;-87
2023/08/06 05:21:44;;;;;;;2.92;0.88;;;12.50;98.00;;;;;;4930924;29;20036;-87
2023/08/06 05:24:13;;;;;;;2.65;0.90;;;12.50;98.00;;;;;;4930906;29;20067;-87
2023/08/06 05:26:39;;;;;;;2.55;1.10;;;12.70;98.00;;;;;;4930837;29;20345;-88
2023/08/06 05:29:04;;;;;;;2.97;0.90;;;12.90;98.00;;;;;;4933486;29;20043;-89
2023/08/06 05:31:30;;;;;;;3.78;1.30;;;12.90;98.00;;;;;;4930593;29;20028;-87
2023/08/06 05:33:55;;;;;;;1.70;0.80;;;12.90;98.00;;;;;;4930785;29;20488;-88
2023/08/06 05:36:21;;;;;;;3.22;1.30;;;12.80;98.00;;;;;;4934112;29;20321;-88
2023/08/06 05:38:47;;;;;;;3.83;1.17;;;12.90;98.00;;;;;;4918096;29;20495;-88
2023/08/06 05:41:13;;;;;;;3.47;1.00;;;13.00;98.00;;;;;;4932978;29;20052;-88
2023/08/06 05:43:44;;;;;;;3.10;1.00;;;13.30;98.00;;;;;;4935252;29;20437;-88
2023/08/06 05:46:10;;;;;;;2.47;0.98;;;13.40;98.00;;;;;;4934417;29;20028;-88
2023/08/06 05:48:36;;;;;;;4.75;1.00;;;13.30;98.00;;;;;;4918364;29;20038;-87
2023/08/06 05:51:01;;;;;;;3.72;0.80;;;13.30;98.00;;;;;;4918062;29;20024;-87
2023/08/06 05:53:27;;;;;;;2.25;0.95;;;13.40;98.00;;;;;;4917295;29;20031;-87
2023/08/06 05:55:55;;;;;;;4.00;1.10;;;13.40;98.00;;;;;;4916670;29;20024;-87
2023/08/06 05:58:20;;;;;;;3.55;0.80;;;13.50;98.00;;;;;;4935187;29;20036;-88
2023/08/06 06:00:46;;;;;;;2.75;1.00;;;13.40;98.00;;;;;;4916132;29;20043;-88
2023/08/06 06:03:11;;;;;;;3.22;1.20;;;13.30;98.00;;;;;;4925574;29;20032;-87
2023/08/06 06:05:38;;;;;;;3.50;1.20;;;13.20;98.00;;;;;;4916449;29;20092;-87
2023/08/06 06:08:04;;;;;;;4.90;1.40;;;12.90;98.00;;;;;;4928773;29;20321;-87
2023/08/06 06:10:30;;;;;;;3.28;1.02;;;12.80;98.00;;;;;;4933613;29;20020;-88
2023/08/06 06:12:56;;;;;;;3.47;1.00;;;12.80;96.90;;;;;;4936651;29;20027;-87
2023/08/06 06:15:29;;;;;;;6.10;1.40;;;12.80;98.00;;;;;;4934208;29;20027;-88
2023/08/06 06:17:55;;;;;;;1.33;0.70;;;12.90;98.00;;;;;;4931558;29;20044;-89
2023/08/06 06:20:23;;;;;;;3.47;0.80;;;13.10;98.00;;;;;;4915851;29;20046;-88
2023/08/06 06:23:09;;;;;;;1.65;0.77;;;13.40;98.00;;;;;;4934615;29;20066;-89
2023/08/06 06:35:49;;;;;;;1.65;0.70;;;13.90;98.00;;;;;;4911596;29;20052;-94
2023/08/06 06:46:11;;;;;;;2.88;0.73;;;14.00;98.00;;;;;;4909144;29;20665;-92
2023/08/06 07:31:36;;;;;;;0.65;0.50;;;14.00;98.00;;;;;;4793544;29;20056;-96
2023/08/06 07:52:06;;;;;;;1.13;0.50;;;15.00;97.30;;;;;;4839973;29;20052;-93
2023/08/06 07:54:56;;;;;;;1.02;0.50;;;15.00;97.30;;;;;;4848516;29;20038;-92
2023/08/06 08:01:32;;;;;;;;;;;;;;;;;;;;;
2023/08/06 08:35:26;;;;;;;0.70;0.50;;;12.60;92.80;;;;;;4839055;29;20070;-92
2023/08/06 08:37:52;;;;;;;1.85;0.63;;;12.90;93.30;;;;;;4872307;29;20089;-87
2023/08/06 08:44:28;;;;;;;;;;;;;;;;;;;;;
2023/08/06 09:22:20;;;;;;;;;;;;;;;;;;;;;
2023/08/06 09:32:06;;;;;;;0.77;0.50;;;13.40;92.60;;;;;;4917280;29;20035;-94
2023/08/06 09:34:32;;;;;;;1.70;0.90;;;13.50;97.30;;;;;;4915174;29;20033;-88
2023/08/06 09:36:57;;;;;;;1.25;0.70;;;13.90;97.90;;;;;;4908918;29;20056;-88
2023/08/06 09:39:30;;;;;;;0.75;0.60;;;14.20;98.00;;;;;;4913957;29;20449;-88
2023/08/06 09:48:44;;;;;;;0.68;0.60;;;13.40;95.10;;;;;;4858026;29;20076;-87
2023/08/06 09:51:12;;;;;;;1.67;0.80;;;13.20;93.00;;;;;;4864455;29;20123;-83
2023/08/06 09:53:40;;;;;;;0.73;0.50;;;12.90;92.70;;;;;;4874581;29;20043;-84
2023/08/06 09:56:06;;;;;;;1.50;0.80;;;12.70;91.50;;;;;;4905139;29;20142;-85
2023/08/06 09:58:32;;;;;;;0.75;0.52;;;12.70;89.70;;;;;;4928190;29;20079;-87
2023/08/06 10:00:59;;;;;;;0.93;0.50;;;12.80;90.70;;;;;;4930988;29;20031;-85
2023/08/06 10:03:26;;;;;;;0.77;0.50;;;12.70;91.40;;;;;;4927064;29;20472;-86
2023/08/06 10:05:52;;;;;;;1.58;0.60;;;12.70;87.80;;;;;;4908526;29;20075;-86
2023/08/06 10:08:18;;;;;;;1.17;0.60;;;12.70;86.70;;;;;;4910229;29;20063;-86
2023/08/06 10:10:45;;;;;;;1.80;0.63;;;12.60;86.70;;;;;;4930055;29;20455;-87
2023/08/06 10:13:12;;;;;;;1.27;0.60;;;12.50;85.90;;;;;;4931337;29;20046;-89
2023/08/06 10:15:39;;;;;;;2.83;1.20;;;12.50;82.90;;;;;;4914624;29;21622;-90
2023/08/06 10:18:06;;;;;;;2.40;1.00;;;12.50;82.80;;;;;;4915277;29;20032;-88
2023/08/06 10:20:35;;;;;;;1.20;0.70;;;12.40;83.30;;;;;;4930763;29;20063;-89
2023/08/06 10:23:03;;;;;;;8.57;3.58;;;12.40;82.00;;;;;;4933922;29;20024;-89
2023/08/06 10:25:33;;;;;;;3.42;1.52;;;12.30;85.00;;;;;;4932213;29;20452;-87
2023/08/06 10:28:00;;;;;;;4.22;1.77;;;12.30;83.00;;;;;;4929576;29;20396;-86
2023/08/06 10:30:28;;;;;;;1.52;0.80;;;12.50;80.60;;;;;;4928887;29;20119;-85
2023/08/06 10:32:57;;;;;;;0.50;0.50;;;12.50;86.10;;;;;;4930370;29;20061;-84
2023/08/06 10:35:48;;;;;;;1.33;0.60;;;12.50;86.70;;;;;;4930145;29;20051;-85
2023/08/06 10:38:31;;;;;;;1.30;0.88;;;12.60;87.40;;;;;;4915986;29;20031;-83
2023/08/06 10:40:57;;;;;;;4.35;1.52;;;12.70;87.10;;;;;;4914319;29;20369;-86
2023/08/06 10:43:34;;;;;;;1.55;0.85;;;12.70;88.80;;;;;;4931688;29;20032;-85
2023/08/06 10:46:03;;;;;;;1.33;0.73;;;12.80;84.50;;;;;;4923508;29;20027;-83
2023/08/06 10:48:40;;;;;;;1.42;0.60;;;12.90;90.10;;;;;;4936266;29;20106;-85
2023/08/06 10:51:11;;;;;;;1.38;0.80;;;12.80;88.90;;;;;;4935568;29;20102;-84
2023/08/06 10:53:37;;;;;;;1.00;0.60;;;12.70;86.30;;;;;;4925945;29;20119;-84
2023/08/06 10:56:18;;;;;;;1.73;0.80;;;12.70;88.00;;;;;;4938065;29;20467;-85
2023/08/06 10:58:46;;;;;;;1.02;0.60;;;12.60;87.50;;;;;;4918158;29;20057;-86
2023/08/06 11:01:11;;;;;;;1.05;0.70;;;12.70;88.20;;;;;;4935919;29;20039;-85
2023/08/06 11:03:38;;;;;;;1.45;0.60;;;12.70;88.20;;;;;;4936142;29;20028;-84
2023/08/06 11:06:06;;;;;;;0.63;0.50;;;12.70;85.30;;;;;;4931195;29;20481;-85
2023/08/06 11:08:37;;;;;;;1.38;0.70;;;12.60;84.60;;;;;;4937493;29;20322;-84
2023/08/06 11:11:10;;;;;;;0.77;0.60;;;12.60;84.40;;;;;;4936412;29;20038;-84
2023/08/06 11:13:37;;;;;;;0.60;0.52;;;12.60;86.10;;;;;;4936305;29;20030;-85
2023/08/06 11:16:03;;;;;;;1.15;0.60;;;12.60;85.30;;;;;;4938302;29;20370;-85
2023/08/06 11:18:32;;;;;;;0.65;0.60;;;12.60;84.80;;;;;;4936779;29;20023;-84
2023/08/06 11:21:02;;;;;;;0.80;0.60;;;12.60;83.60;;;;;;4933776;29;20055;-85
2023/08/06 11:23:28;;;;;;;1.30;0.65;;;12.70;84.30;;;;;;4914417;29;20071;-86
2023/08/06 11:25:55;;;;;;;1.08;0.60;;;12.80;85.50;;;;;;4939484;29;20107;-85
2023/08/06 11:28:21;;;;;;;0.57;0.50;;;12.80;87.70;;;;;;4939617;29;20035;-85
2023/08/06 11:30:47;;;;;;;1.15;0.60;;;12.90;86.20;;;;;;4936027;29;20024;-85
2023/08/06 11:33:13;;;;;;;0.88;0.50;;;13.00;86.60;;;;;;4936430;29;20028;-83
2023/08/06 11:35:39;;;;;;;1.05;0.70;;;12.90;89.10;;;;;;4936064;29;20020;-87
2023/08/06 11:38:06;;;;;;;0.80;0.60;;;12.80;85.50;;;;;;4937170;29;20020;-86
2023/08/06 11:40:35;;;;;;;1.30;0.50;;;12.80;81.80;;;;;;4938499;29;20103;-85
2023/08/06 11:43:01;;;;;;;1.50;0.80;;;12.90;84.90;;;;;;4920900;29;20039;-84
2023/08/06 11:45:27;;;;;;;3.03;0.70;;;12.90;86.10;;;;;;4937584;29;20036;-86
2023/08/06 11:47:55;;;;;;;1.23;0.70;;;13.00;82.00;;;;;;4937329;29;20031;-88
2023/08/06 11:50:28;;;;;;;0.68;0.50;;;13.00;84.30;;;;;;4919837;29;20067;-83
2023/08/06 11:52:58;;;;;;;1.55;0.60;;;12.90;87.00;;;;;;4936279;29;20050;-85
2023/08/06 11:55:25;;;;;;;1.13;0.60;;;12.80;83.60;;;;;;4940175;29;20059;-86
2023/08/06 11:57:54;;;;;;;0.68;0.60;;;12.80;80.70;;;;;;4938060;29;20051;-85
2023/08/06 12:00:21;;;;;;;0.93;0.60;;;12.90;81.90;;;;;;4938478;29;20444;-85
2023/08/06 12:02:50;;;;;;;0.45;0.40;;;12.90;81.10;;;;;;4939140;29;20122;-84
2023/08/06 12:05:20;;;;;;;0.68;0.50;;;13.00;78.80;;;;;;4939007;29;20028;-84
2023/08/06 12:07:48;;;;;;;0.68;0.43;;;12.90;82.70;;;;;;4939647;29;20051;-84
2023/08/06 12:10:15;;;;;;;2.90;0.75;;;12.90;81.20;;;;;;4940009;29;20038;-84
2023/08/06 12:12:41;;;;;;;1.15;0.70;;;12.80;80.30;;;;;;4939319;29;20027;-84
2023/08/06 12:15:08;;;;;;;1.10;0.70;;;12.90;76.60;;;;;;4940297;29;20028;-84
2023/08/06 12:17:34;;;;;;;2.00;0.90;;;12.80;78.70;;;;;;4938997;29;20015;-83
2023/08/06 12:20:00;;;;;;;1.67;0.80;;;12.70;77.90;;;;;;4936978;29;20369;-84
2023/08/06 12:22:27;;;;;;;2.53;1.10;;;12.50;76.20;;;;;;4937496;29;20422;-84
2023/08/06 12:24:52;;;;;;;3.60;1.58;;;12.40;77.10;;;;;;4938324;29;20115;-85
2023/08/06 12:27:18;;;;;;;4.95;1.70;;;12.40;76.20;;;;;;4938646;29;20480;-84
2023/08/06 12:29:46;;;;;;;3.05;1.50;;;12.30;82.00;;;;;;4939468;29;20365;-85
2023/08/06 12:32:12;;;;;;;4.43;2.10;;;12.20;82.10;;;;;;4922553;29;20023;-84
2023/08/06 12:34:41;;;;;;;3.83;1.80;;;12.40;85.00;;;;;;4938508;29;20365;-83
2023/08/06 12:37:08;;;;;;;4.30;2.00;;;12.50;87.60;;;;;;4937449;29;20058;-84
2023/08/06 12:39:34;;;;;;;4.20;2.03;;;12.50;89.70;;;;;;4938275;29;21780;-84
2023/08/06 12:42:01;;;;;;;4.53;1.70;;;12.60;87.90;;;;;;4938459;29;20039;-83
2023/08/06 12:44:27;;;;;;;3.80;1.65;;;12.60;89.30;;;;;;4922479;29;20027;-85
2023/08/06 12:46:53;;;;;;;3.33;1.45;;;12.70;93.20;;;;;;4938722;29;20039;-83
2023/08/06 12:49:20;;;;;;;3.90;1.98;;;12.70;92.00;;;;;;4939327;29;20028;-82
2023/08/06 12:51:47;;;;;;;3.95;1.92;;;12.70;91.40;;;;;;4937536;29;20396;-82
2023/08/06 12:54:12;;;;;;;3.55;1.90;;;12.80;91.70;;;;;;4939962;29;20024;-83
2023/08/06 12:56:38;;;;;;;3.72;1.83;;;12.90;93.50;;;;;;4938530;29;20028;-84
2023/08/06 12:59:03;;;;;;;3.38;1.60;;;13.10;95.70;;;;;;4937490;29;20032;-86
2023/08/06 13:01:29;;;;;;;2.35;1.30;;;13.20;97.50;;;;;;4938612;29;20028;-87
2023/08/06 13:03:54;;;;;;;3.42;1.50;;;13.40;98.00;;;;;;4939521;29;20074;-88
2023/08/06 13:06:20;;;;;;;3.05;1.55;;;13.40;98.00;;;;;;4937969;29;20051;-87
2023/08/06 13:08:46;;;;;;;4.10;1.58;;;13.30;98.00;;;;;;4937868;29;20118;-89
2023/08/06 13:11:11;;;;;;;5.25;1.60;;;13.20;96.30;;;;;;4936651;29;20042;-89
2023/08/06 13:13:37;;;;;;;3.10;1.52;;;13.20;97.10;;;;;;4938891;29;20103;-87
2023/08/06 13:16:23;;;;;;;4.57;1.40;;;13.10;97.40;;;;;;4938824;29;20023;-90
2023/08/06 13:42:38;;;;;;;;;;;;;;;;;;;;;
2023/08/06 14:38:33;;;;;;;1.10;0.60;;;14.10;98.00;;;;;;4832754;29;20041;-87
2023/08/06 14:41:08;;;;;;;1.80;0.80;;;14.20;98.00;;;;;;4850532;29;20424;-89
2023/08/06 14:43:49;;;;;;;1.60;0.80;;;14.10;98.00;;;;;;4860068;29;20451;-89
2023/08/06 14:46:29;;;;;;;2.10;0.90;;;13.80;98.00;;;;;;4864406;29;20128;-90
2023/08/06 14:48:56;;;;;;;2.95;0.80;;;13.60;98.00;;;;;;4848316;29;20034;-88
2023/08/06 14:51:23;;;;;;;2.42;0.80;;;13.80;98.00;;;;;;4861707;29;20040;-85
2023/08/06 14:53:48;;;;;;;1.65;0.80;;;13.90;98.00;;;;;;4942263;29;20337;-87
2023/08/06 14:56:14;;;;;;;1.38;0.90;;;13.90;98.00;;;;;;4941528;29;20023;-87
2023/08/06 14:58:42;;;;;;;1.92;0.70;;;13.90;98.00;;;;;;4942459;29;20020;-86
2023/08/06 15:01:11;;;;;;;2.15;1.10;;;13.80;98.00;;;;;;4941440;29;20031;-87
2023/08/06 15:03:47;;;;;;;1.10;0.70;;;13.70;98.00;;;;;;4923362;29;20111;-89
2023/08/06 15:06:15;;;;;;;2.60;0.80;;;13.60;98.00;;;;;;4931571;29;20027;-88
2023/08/06 15:09:00;;;;;;;1.00;0.70;;;13.70;98.00;;;;;;4924188;29;20105;-89
2023/08/06 15:11:39;;;;;;;1.92;0.80;;;13.80;98.00;;;;;;4920758;29;20039;-90
2023/08/06 15:21:02;;;;;;;4.10;1.15;;;14.40;98.00;;;;;;4855879;29;20342;-88
2023/08/06 15:23:40;;;;;;;3.88;0.90;;;14.80;98.00;;;;;;4883431;29;20030;-90
2023/08/06 15:26:09;;;;;;;2.47;1.10;;;15.00;97.50;;;;;;4879237;29;20145;-89
2023/08/06 15:28:37;;;;;;;2.10;0.95;;;15.20;95.50;;;;;;4914270;29;20035;-89
2023/08/06 15:31:07;;;;;;;4.60;1.48;;;15.30;92.90;;;;;;4939408;29;20447;-88
2023/08/06 15:33:33;;;;;;;3.50;1.00;;;15.30;94.20;;;;;;4938884;29;20024;-89
2023/08/06 15:36:55;;;;;;;2.25;1.00;;;15.10;94.50;;;;;;4921336;29;20087;-90
2023/08/06 15:38:56;;;;;;;3.22;1.10;;;15.00;95.10;;;;;;4918682;29;20330;-89
2023/08/06 15:41:21;;;;;;;2.25;1.10;;;15.20;94.80;;;;;;4939203;29;20043;-88
2023/08/06 15:43:47;;;;;;;6.90;1.58;;;14.90;94.60;;;;;;4937913;29;20083;-89
2023/08/06 15:46:12;;;;;;;2.58;1.10;;;14.70;96.00;;;;;;4940496;29;20062;-88
2023/08/06 15:48:39;;;;;;;3.55;1.70;;;14.60;96.10;;;;;;4939830;29;20083;-85
2023/08/06 15:51:05;;;;;;;3.13;1.40;;;14.60;96.30;;;;;;4938616;29;20451;-86
2023/08/06 15:53:40;;;;;;;5.90;1.20;;;14.70;95.90;;;;;;4941322;29;20052;-91
2023/08/06 15:56:06;;;;;;;4.60;1.27;;;14.50;95.90;;;;;;4935671;29;20028;-89
2023/08/06 15:58:31;;;;;;;2.17;0.95;;;14.90;95.20;;;;;;4939066;29;20025;-84
2023/08/06 16:01:00;;;;;;;2.28;1.00;;;15.40;93.50;;;;;;4938049;29;20086;-87
2023/08/06 16:03:26;;;;;;;1.73;0.93;;;15.20;92.90;;;;;;4939504;29;20120;-88
2023/08/06 16:05:54;;;;;;;2.28;0.90;;;15.00;93.70;;;;;;4936313;29;20064;-90
2023/08/06 16:08:29;;;;;;;4.88;1.20;;;14.60;93.90;;;;;;4942110;28;20364;-91
2023/08/06 16:11:10;;;;;;;2.08;1.08;;;14.10;96.00;;;;;;4938952;29;20138;-90
2023/08/06 16:13:43;;;;;;;3.50;1.13;;;13.90;97.30;;;;;;4937061;29;20432;-90
2023/08/06 16:16:11;;;;;;;3.80;1.60;;;13.70;97.90;;;;;;4938888;29;20431;-90
2023/08/06 16:18:38;;;;;;;4.95;1.77;;;13.40;98.00;;;;;;4936164;29;20027;-90
2023/08/06 16:21:04;;;;;;;7.18;2.20;;;13.00;98.00;;;;;;4918630;29;20115;-87
2023/08/06 16:23:29;;;;;;;5.55;2.50;;;12.40;92.40;;;;;;4920533;29;20111;-87
2023/08/06 16:25:58;;;;;;;5.10;2.00;;;12.00;91.10;;;;;;4934341;29;20020;-83
2023/08/06 16:28:24;;;;;;;4.68;2.40;;;11.90;88.50;;;;;;4934802;29;20047;-82
2023/08/06 16:30:49;;;;;;;4.43;2.13;;;12.00;85.30;;;;;;4939250;29;20118;-81
2023/08/06 16:33:16;;;;;;;4.70;1.90;;;12.60;84.80;;;;;;4922404;29;20027;-82
2023/08/06 16:35:42;;;;;;;4.30;1.50;;;13.40;93.30;;;;;;4935085;29;20024;-82
2023/08/06 16:38:08;;;;;;;6.57;2.00;;;13.40;97.10;;;;;;4937704;29;20031;-83
2023/08/06 16:40:34;;;;;;;5.88;2.05;;;13.20;93.90;;;;;;4939076;29;20436;-82
2023/08/06 16:42:59;;;;;;;3.78;1.90;;;13.00;94.00;;;;;;4937151;29;20118;-83
2023/08/06 16:45:25;;;;;;;3.92;1.90;;;12.90;93.80;;;;;;4936212;29;20417;-82
2023/08/06 16:47:50;;;;;;;5.10;1.65;;;12.70;93.40;;;;;;4937256;29;20332;-83
2023/08/06 16:50:16;;;;;;;4.60;1.83;;;12.70;95.60;;;;;;4913988;29;20028;-81
2023/08/06 16:52:44;;;;;;;3.28;1.52;;;12.60;94.70;;;;;;4936542;29;20059;-83
2023/08/06 16:55:10;;;;;;;3.55;1.85;;;12.60;94.60;;;;;;4935556;29;20024;-83
2023/08/06 16:57:36;;;;;;;3.13;1.30;;;12.50;94.50;;;;;;4937310;29;20324;-82
2023/08/06 17:00:01;;;;;;;3.55;1.48;;;12.30;93.60;;;;;;4931985;29;20069;-83
2023/08/06 17:02:27;;;;;;;4.75;2.00;;;12.10;92.80;;;;;;4936055;29;20046;-85
2023/08/06 17:04:52;;;;;;;3.92;1.63;;;11.90;90.60;;;;;;4933186;29;20042;-85
2023/08/06 17:07:18;;;;;;;4.53;2.05;;;11.90;90.60;;;;;;4935402;29;20090;-85
2023/08/06 17:09:47;;;;;;;3.67;1.75;;;11.80;89.90;;;;;;4931966;29;20044;-85
2023/08/06 17:12:19;;;;;;;3.65;1.77;;;11.70;90.10;;;;;;4917597;29;20024;-84
2023/08/06 17:14:49;;;;;;;3.63;1.70;;;11.70;88.90;;;;;;4937630;29;20372;-86
2023/08/06 17:17:14;;;;;;;4.25;2.33;;;11.70;90.00;;;;;;4937135;29;20020;-85
2023/08/06 17:19:43;;;;;;;4.03;1.60;;;11.60;92.10;;;;;;4934900;29;20042;-85
2023/08/06 17:22:11;;;;;;;3.80;1.63;;;11.60;93.10;;;;;;4933862;29;20456;-86
2023/08/06 17:24:37;;;;;;;4.50;1.85;;;11.60;94.60;;;;;;4938453;29;20024;-88
2023/08/06 17:27:03;;;;;;;4.28;1.60;;;11.60;95.50;;;;;;4938745;29;20038;-86
2023/08/06 17:29:28;;;;;;;3.60;1.50;;;11.60;96.70;;;;;;4939238;29;20327;-87
2023/08/06 17:31:55;;;;;;;6.97;2.17;;;11.60;96.10;;;;;;4937461;29;20024;-86
2023/08/06 17:34:20;;;;;;;4.65;2.05;;;11.60;94.00;;;;;;4920188;29;20027;-87
2023/08/06 17:36:46;;;;;;;4.90;2.15;;;11.60;93.70;;;;;;4936994;29;20420;-88
2023/08/06 17:39:12;;;;;;;5.03;2.25;;;11.60;96.00;;;;;;4920723;29;20027;-88
2023/08/06 17:41:37;;;;;;;5.45;2.10;;;11.60;96.30;;;;;;4936150;29;20417;-88
2023/08/06 17:44:10;;;;;;;5.78;2.58;;;11.70;96.80;;;;;;4920510;29;20054;-90
2023/08/06 17:46:39;;;;;;;5.03;1.90;;;11.70;97.40;;;;;;4933765;29;20074;-88
2023/08/06 17:49:07;;;;;;;3.55;1.73;;;11.70;97.20;;;;;;4923814;29;20039;-87
2023/08/06 17:51:36;;;;;;;6.07;2.20;;;11.80;97.10;;;;;;4937708;29;20364;-88
2023/08/06 17:54:10;;;;;;;5.38;2.05;;;11.80;97.20;;;;;;4937579;29;20148;-89
2023/08/06 17:56:38;;;;;;;4.50;1.95;;;11.80;97.40;;;;;;4914667;29;20024;-88
2023/08/06 17:59:04;;;;;;;4.68;1.70;;;11.70;97.60;;;;;;4902987;29;20306;-89
2023/08/06 18:01:29;;;;;;;4.70;1.80;;;11.70;98.00;;;;;;4919661;29;20091;-86
2023/08/06 18:03:58;;;;;;;5.57;2.40;;;11.70;97.40;;;;;;4928520;29;20061;-88
2023/08/06 18:06:26;;;;;;;4.78;1.88;;;11.70;97.00;;;;;;4931920;29;20074;-88
2023/08/06 18:08:52;;;;;;;4.82;1.88;;;11.70;97.50;;;;;;4935857;29;20483;-87
2023/08/06 18:14:38;;;;;;;4.15;1.80;;;11.60;97.20;;;;;;4884830;29;20029;-89
2023/08/06 18:17:08;;;;;;;4.75;2.05;;;11.60;97.10;;;;;;4902921;29;20031;-88
2023/08/06 18:19:36;;;;;;;4.95;1.70;;;11.50;97.10;;;;;;4921552;29;20034;-87
2023/08/06 18:22:08;;;;;;;5.70;2.30;;;11.50;97.10;;;;;;4919314;29;20071;-86
2023/08/06 18:24:56;;;;;;;;;;;;;;;;;;;;;
2023/08/06 18:27:26;;;;;;;5.00;1.85;;;11.40;98.00;;;;;;4937365;29;20435;-88
2023/08/06 18:29:59;;;;;;;6.32;2.25;;;11.40;98.00;;;;;;4919832;29;20358;-88
2023/08/06 18:32:47;;;;;;;4.40;2.00;;;11.40;97.10;;;;;;4920141;29;20127;-88
2023/08/06 18:35:20;;;;;;;5.40;1.95;;;11.40;97.40;;;;;;4901100;29;20139;-87
2023/08/06 18:37:55;;;;;;;3.70;1.80;;;11.40;97.00;;;;;;4910477;29;20036;-87
2023/08/06 18:40:25;;;;;;;5.68;2.05;;;11.40;97.30;;;;;;4938209;29;20089;-87
2023/08/06 18:43:01;;;;;;;4.45;2.22;;;11.40;97.50;;;;;;4938256;29;20038;-87
2023/08/06 18:45:28;;;;;;;4.53;2.00;;;11.40;98.00;;;;;;4936940;29;20094;-87
2023/08/06 18:47:55;;;;;;;6.65;1.95;;;11.40;98.00;;;;;;4919549;29;20325;-89
2023/08/06 18:50:36;;;;;;;7.30;2.00;;;11.40;98.00;;;;;;4919704;29;20051;-88
2023/08/06 18:53:54;;;;;;;4.30;1.98;;;11.40;98.00;;;;;;4916560;29;20043;-89
2023/08/06 18:56:45;;;;;;;5.05;2.33;;;11.40;98.00;;;;;;4938487;29;20028;-89
2023/08/06 18:59:30;;;;;;;4.50;2.33;;;11.40;98.00;;;;;;4909262;29;20040;-87
2023/08/06 19:01:56;;;;;;;5.72;2.63;;;11.50;98.00;;;;;;4937072;29;20048;-88
2023/08/06 19:04:24;;;;;;;6.70;2.13;;;11.50;98.00;;;;;;4920128;29;20028;-88
2023/08/06 19:06:50;;;;;;;4.00;2.00;;;11.50;97.90;;;;;;4920178;29;20031;-88
2023/08/06 19:09:16;;;;;;;6.65;2.03;;;11.50;97.80;;;;;;4921297;29;20042;-87
2023/08/06 19:11:44;;;;;;;7.95;2.60;;;11.50;97.90;;;;;;4921335;29;20440;-86
2023/08/06 19:14:13;;;;;;;4.78;2.30;;;11.50;98.00;;;;;;4938428;29;20051;-86
2023/08/06 19:16:45;;;;;;;5.05;2.20;;;11.50;98.00;;;;;;4920238;29;20432;-87
2023/08/06 19:19:12;;;;;;;5.38;2.42;;;11.50;97.90;;;;;;4937861;29;20086;-87
2023/08/06 19:21:37;;;;;;;7.13;2.60;;;11.60;97.60;;;;;;4936758;29;20027;-87
2023/08/06 19:24:03;;;;;;;4.35;2.13;;;11.50;97.00;;;;;;4921182;29;20376;-86
2023/08/06 19:27:09;;;;;;;5.57;2.60;;;11.50;96.70;;;;;;4937965;29;20035;-86
2023/08/06 19:29:35;;;;;;;6.25;2.70;;;11.40;96.30;;;;;;4918611;29;20500;-86
2023/08/06 19:32:01;;;;;;;6.32;2.30;;;11.40;96.00;;;;;;4940811;29;20028;-87
2023/08/06 19:34:26;;;;;;;7.43;2.40;;;11.30;95.70;;;;;;4939164;29;20028;-86
2023/08/06 19:37:22;;;;;;;4.50;2.33;;;11.20;94.50;;;;;;4939995;29;20151;-86
2023/08/06 19:39:51;;;;;;;6.40;2.40;;;11.20;94.20;;;;;;4902027;29;20040;-86
2023/08/06 19:42:17;;;;;;;6.70;2.47;;;11.20;93.50;;;;;;4941519;29;20413;-86